Unispirit — V2BS1 — position and weather

sailwx.info

Track history (hours):
 
Tides and Currents Weather Stations Pressure Air Temp Water Temp Dewpoint Dewpoint Depression Visibility Wind Speed Wind Dir Waves Ship Positions

Unispirit

Last reported at 2017-Oct-02 20:57 UTC. Time now 2017-Dec-18 07:09 UTC.
Position N 27°59' W 016°23'.
Warning: this ship's position is months out of date.

Length 132 m; draft 6 m.

Type: Cargo ship. MMSI: 304908000.

Date/timePositionNaut miles runAvg speedWind from/ knotsBaromVisibWave heightAir tempDewpointWater temp
2017-Oct-02 20:57N 27°59' W 016°23'714.2
2017-Oct-02 20:29N 28°04' W 016°18'814.5
2017-Oct-02 19:57N 28°10' W 016°12'915.0
2017-Oct-02 19:19N 28°17' W 016°05'514.9
2017-Oct-02 19:00N 28°21' W 016°02'714.8
2017-Oct-02 18:30N 28°27' W 015°57'714.7
2017-Oct-02 18:00N 28°32' W 015°52'714.4
2017-Oct-02 17:30N 28°38' W 015°47'714.4
2017-Oct-02 17:00N 28°45' W 015°45'814.4
2017-Oct-02 16:29N 28°52' W 015°43'814.4
2017-Oct-02 15:58N 28°60' W 015°41'5814.6
2017-Oct-02 12:01N 29°56' W 015°27'414.5
2017-Oct-02 11:44N 30°00' W 015°26'  
2017-Sep-29 00:53N 47°56' W 006°32'1414.2
2017-Sep-28 23:53N 48°09' W 006°22'713.8
2017-Sep-28 23:22N 48°15' W 006°17'513.7
2017-Sep-28 22:58N 48°20' W 006°13'713.6
2017-Sep-28 22:27N 48°26' W 006°08'613.3
2017-Sep-28 22:00N 48°31' W 006°04'9113.1
2017-Sep-28 15:06N 49°29' W 004°17'1714.3
2017-Sep-28 13:55N 49°37' W 003°55'613.9
2017-Sep-28 13:28N 49°40' W 003°46'1113.6
2017-Sep-28 12:38N 49°46' W 003°31'513.2
2017-Sep-28 12:18N 49°49' W 003°25'413.1
2017-Sep-28 12:00N 49°50' W 003°20'713.1
2017-Sep-28 11:30N 49°54' W 003°12'713.1
2017-Sep-28 11:00N 49°57' W 003°03'713.1
2017-Sep-28 10:30N 49°60' W 002°53'713.4
2017-Sep-28 09:57N 50°02' W 002°42'2914.2
2017-Sep-28 07:56N 50°10' W 001°59'615.1
2017-Sep-28 07:30N 50°12' W 001°50'815.4
2017-Sep-28 07:00N 50°14' W 001°38'5314.3
2017-Sep-28 03:18N 50°28' W 000°18'413.1
2017-Sep-28 03:00N 50°30' W 000°13'613.0
2017-Sep-28 02:30N 50°31' W 000°03'612.8
2017-Sep-28 02:00N 50°33' E 000°07'612.7
2017-Sep-28 01:30N 50°35' E 000°17'612.7
2017-Sep-28 01:00N 50°37' E 000°26'612.8
2017-Sep-28 00:30N 50°39' E 000°36'713.4
2017-Sep-28 00:00N 50°43' E 000°44'713.9
2017-Sep-27 23:31N 50°47' E 000°53'1614.7
2017-Sep-27 22:24N 50°57' E 001°14'615.3
2017-Sep-27 22:00N 51°01' E 001°21'815.1
2017-Sep-27 21:31N 51°06' E 001°30'714.6
2017-Sep-27 21:01N 51°10' E 001°39'713.9
2017-Sep-27 20:30N 51°16' E 001°46'713.7
2017-Sep-27 20:00N 51°22' E 001°52'713.3
2017-Sep-27 19:30N 51°27' E 001°57'713.1
2017-Sep-27 19:00N 51°33' E 002°03'713.2
2017-Sep-27 18:30N 51°38' E 002°10'613.0
2017-Sep-27 18:00N 51°43' E 002°17'21614.2
2017-Sep-27 02:45N 54°42' E 005°38'414.4
2017-Sep-27 02:29N 54°45' E 005°41'714.3
2017-Sep-27 02:00N 54°51' E 005°47'23614.1
2017-Sep-26 09:14N 57°47' E 010°32'416.3
2017-Sep-26 08:59N 57°47' E 010°39'714.6
2017-Sep-26 08:30N 57°45' E 010°52'715.0
2017-Sep-26 08:00N 57°40' E 011°02'714.9
2017-Sep-26 07:31N 57°35' E 011°12'815.2
2017-Sep-26 07:00N 57°30' E 011°23'714.9
2017-Sep-26 06:30N 57°23' E 011°29'815.2
2017-Sep-26 06:00N 57°16' E 011°34'715.0
2017-Sep-26 05:30N 57°09' E 011°39'714.9
2017-Sep-26 05:00N 57°02' E 011°43'5514.4
2017-Sep-26 01:10N 56°11' E 012°23'316.6
2017-Sep-26 01:01N 56°10' E 012°26'816.8
2017-Sep-26 00:31N 56°04' E 012°38'714.9
2017-Sep-26 00:01N 55°57' E 012°43'714.5
2017-Sep-25 23:31N 55°50' E 012°44'714.1
2017-Sep-25 23:01N 55°43' E 012°41'713.1
2017-Sep-25 22:30N 55°37' E 012°42'713.2
2017-Sep-25 22:01N 55°30' E 012°43'714.4
2017-Sep-25 21:31N 55°23' E 012°41'611.6
2017-Sep-25 21:00N 55°18' E 012°45'714.8
2017-Sep-25 20:30N 55°16' E 012°57'714.8
2017-Sep-25 20:00N 55°15' E 013°10'915.1
2017-Sep-25 19:23N 55°15' E 013°27'1514.8
2017-Sep-25 18:21N 55°14' E 013°54'714.9
2017-Sep-25 17:54N 55°14' E 014°05'614.9
2017-Sep-25 17:28N 55°13' E 014°17'714.6
2017-Sep-25 17:00N 55°18' E 014°24'814.5
2017-Sep-25 16:28N 55°24' E 014°33'814.4
2017-Sep-25 15:54N 55°29' E 014°45'614.4
2017-Sep-25 15:30N 55°32' E 014°54'1114.5
2017-Sep-25 14:45N 55°37' E 015°10'414.7
2017-Sep-25 14:30N 55°39' E 015°16'714.7
2017-Sep-25 14:00N 55°43' E 015°27'714.8
2017-Sep-25 13:30N 55°46' E 015°39'714.8
2017-Sep-25 13:00N 55°50' E 015°50'815.0
2017-Sep-25 12:30N 55°54' E 016°02'815.1
2017-Sep-25 12:00N 55°57' E 016°14'815.1
2017-Sep-25 11:30N 56°01' E 016°25'815.1
2017-Sep-25 11:00N 56°05' E 016°37'714.9
2017-Sep-25 10:30N 56°09' E 016°48'714.7
2017-Sep-25 10:00N 56°14' E 016°58'714.8
2017-Sep-25 09:30N 56°18' E 017°09'714.8
2017-Sep-25 09:00N 56°23' E 017°19'714.7
2017-Sep-25 08:30N 56°27' E 017°30'1014.7
2017-Sep-25 07:49N 56°33' E 017°45'614.6
2017-Sep-25 07:23N 56°37' E 017°54'614.8
2017-Sep-25 07:00N 56°40' E 018°02'714.8
2017-Sep-25 06:30N 56°45' E 018°13'714.8
2017-Sep-25 06:00N 56°49' E 018°24'714.6
2017-Sep-25 05:30N 56°55' E 018°32'16914.6
2017-Sep-24 17:58N 59°11' E 021°41'714.6
2017-Sep-24 17:30N 59°15' E 021°52'714.8
2017-Sep-24 17:00N 59°19' E 022°03'714.6
2017-Sep-24 16:30N 59°23' E 022°15'714.8
2017-Sep-24 16:00N 59°28' E 022°27'714.9
2017-Sep-24 15:30N 59°31' E 022°40'715.1
2017-Sep-24 15:00N 59°33' E 022°54'715.0
2017-Sep-24 14:30N 59°36' E 023°08'815.1
2017-Sep-24 14:00N 59°38' E 023°22'714.9
2017-Sep-24 13:30N 59°40' E 023°36'814.9
2017-Sep-24 13:00N 59°42' E 023°51'714.9
2017-Sep-24 12:30N 59°44' E 024°05'815.2
2017-Sep-24 12:00N 59°46' E 024°19'714.9
2017-Sep-24 11:30N 59°48' E 024°33'714.8
2017-Sep-24 11:01N 59°50' E 024°48'4314.7
2017-Sep-24 08:04N 59°59' E 026°12'114.4
2017-Sep-24 08:01N 59°59' E 026°14'714.7
2017-Sep-24 07:30N 60°01' E 026°28'714.5
2017-Sep-24 07:01N 60°01' E 026°42'714.6
2017-Sep-24 06:30N 59°60' E 026°57'713.6
2017-Sep-24 06:00N 60°01' E 027°10'713.9
2017-Sep-24 05:30N 60°05' E 027°22'510.0
2017-Sep-24 05:00N 60°08' E 027°31'713.1
2017-Sep-24 04:30N 60°11' E 027°42'612.3
2017-Sep-24 04:01N 60°11' E 027°54'612.1
2017-Sep-24 03:30N 60°09' E 028°06'612.8
2017-Sep-24 03:01N 60°02' E 028°08'612.3
2017-Sep-24 02:31N 59°56' E 028°10'612.5
2017-Sep-24 02:00N 59°50' E 028°12'612.9
2017-Sep-24 01:31N 59°44' E 028°16'3 6.2
2017-Sep-24 01:01N 59°43' E 028°22'3 5.1
2017-Sep-24 00:31N 59°41' E 028°25'0 0.3
2017-Sep-24 00:00N 59°41' E 028°25'0 0.0
2017-Sep-23 23:30N 59°41' E 028°25'0 0.0
2017-Sep-23 23:00N 59°41' E 028°25'0 0.0
2017-Sep-23 22:30N 59°41' E 028°25'0 0.0
2017-Sep-23 21:57N 59°41' E 028°25'0 0.0
2017-Sep-23 21:30N 59°41' E 028°25'0 0.0
2017-Sep-23 21:00N 59°41' E 028°25'0 0.0
2017-Sep-23 20:24N 59°41' E 028°25'0 0.0
2017-Sep-23 20:00N 59°41' E 028°25'  
Track history (hours):
 
Tides and Currents Weather Stations Pressure Air Temp Water Temp Dewpoint Dewpoint Depression Visibility Wind Speed Wind Dir Waves Ship Positions

Unispirit

Last reported at 2017-Oct-02 20:57 UTC. Time now 2017-Dec-18 07:09 UTC.
Position N 27°59' W 016°23'.
Warning: this ship's position is months out of date.

Length 132 m; draft 6 m.

Type: Cargo ship. MMSI: 304908000.

Date/timePositionNaut miles runAvg speedWind from/ knotsBaromVisibWave heightAir tempDewpointWater temp
2017-Oct-02 20:57N 27°59' W 016°23'714.2
2017-Oct-02 20:29N 28°04' W 016°18'814.5
2017-Oct-02 19:57N 28°10' W 016°12'915.0
2017-Oct-02 19:19N 28°17' W 016°05'514.9
2017-Oct-02 19:00N 28°21' W 016°02'714.8
2017-Oct-02 18:30N 28°27' W 015°57'714.7
2017-Oct-02 18:00N 28°32' W 015°52'714.4
2017-Oct-02 17:30N 28°38' W 015°47'714.4
2017-Oct-02 17:00N 28°45' W 015°45'814.4
2017-Oct-02 16:29N 28°52' W 015°43'814.4
2017-Oct-02 15:58N 28°60' W 015°41'5814.6
2017-Oct-02 12:01N 29°56' W 015°27'414.5
2017-Oct-02 11:44N 30°00' W 015°26'  
2017-Sep-29 00:53N 47°56' W 006°32'1414.2
2017-Sep-28 23:53N 48°09' W 006°22'713.8
2017-Sep-28 23:22N 48°15' W 006°17'513.7
2017-Sep-28 22:58N 48°20' W 006°13'713.6
2017-Sep-28 22:27N 48°26' W 006°08'613.3
2017-Sep-28 22:00N 48°31' W 006°04'9113.1
2017-Sep-28 15:06N 49°29' W 004°17'1714.3
2017-Sep-28 13:55N 49°37' W 003°55'613.9
2017-Sep-28 13:28N 49°40' W 003°46'1113.6
2017-Sep-28 12:38N 49°46' W 003°31'513.2
2017-Sep-28 12:18N 49°49' W 003°25'413.1
2017-Sep-28 12:00N 49°50' W 003°20'713.1
2017-Sep-28 11:30N 49°54' W 003°12'713.1
2017-Sep-28 11:00N 49°57' W 003°03'713.1
2017-Sep-28 10:30N 49°60' W 002°53'713.4
2017-Sep-28 09:57N 50°02' W 002°42'2914.2
2017-Sep-28 07:56N 50°10' W 001°59'615.1
2017-Sep-28 07:30N 50°12' W 001°50'815.4
2017-Sep-28 07:00N 50°14' W 001°38'5314.3
2017-Sep-28 03:18N 50°28' W 000°18'413.1
2017-Sep-28 03:00N 50°30' W 000°13'613.0
2017-Sep-28 02:30N 50°31' W 000°03'612.8
2017-Sep-28 02:00N 50°33' E 000°07'612.7
2017-Sep-28 01:30N 50°35' E 000°17'612.7
2017-Sep-28 01:00N 50°37' E 000°26'612.8
2017-Sep-28 00:30N 50°39' E 000°36'713.4
2017-Sep-28 00:00N 50°43' E 000°44'713.9
2017-Sep-27 23:31N 50°47' E 000°53'1614.7
2017-Sep-27 22:24N 50°57' E 001°14'615.3
2017-Sep-27 22:00N 51°01' E 001°21'815.1
2017-Sep-27 21:31N 51°06' E 001°30'714.6
2017-Sep-27 21:01N 51°10' E 001°39'713.9
2017-Sep-27 20:30N 51°16' E 001°46'713.7
2017-Sep-27 20:00N 51°22' E 001°52'713.3
2017-Sep-27 19:30N 51°27' E 001°57'713.1
2017-Sep-27 19:00N 51°33' E 002°03'713.2
2017-Sep-27 18:30N 51°38' E 002°10'613.0
2017-Sep-27 18:00N 51°43' E 002°17'21614.2
2017-Sep-27 02:45N 54°42' E 005°38'414.4
2017-Sep-27 02:29N 54°45' E 005°41'714.3
2017-Sep-27 02:00N 54°51' E 005°47'23614.1
2017-Sep-26 09:14N 57°47' E 010°32'416.3
2017-Sep-26 08:59N 57°47' E 010°39'714.6
2017-Sep-26 08:30N 57°45' E 010°52'715.0
2017-Sep-26 08:00N 57°40' E 011°02'714.9
2017-Sep-26 07:31N 57°35' E 011°12'815.2
2017-Sep-26 07:00N 57°30' E 011°23'714.9
2017-Sep-26 06:30N 57°23' E 011°29'815.2
2017-Sep-26 06:00N 57°16' E 011°34'715.0
2017-Sep-26 05:30N 57°09' E 011°39'714.9
2017-Sep-26 05:00N 57°02' E 011°43'5514.4
2017-Sep-26 01:10N 56°11' E 012°23'316.6
2017-Sep-26 01:01N 56°10' E 012°26'816.8
2017-Sep-26 00:31N 56°04' E 012°38'714.9
2017-Sep-26 00:01N 55°57' E 012°43'714.5
2017-Sep-25 23:31N 55°50' E 012°44'714.1
2017-Sep-25 23:01N 55°43' E 012°41'713.1
2017-Sep-25 22:30N 55°37' E 012°42'713.2
2017-Sep-25 22:01N 55°30' E 012°43'714.4
2017-Sep-25 21:31N 55°23' E 012°41'611.6
2017-Sep-25 21:00N 55°18' E 012°45'714.8
2017-Sep-25 20:30N 55°16' E 012°57'714.8
2017-Sep-25 20:00N 55°15' E 013°10'915.1
2017-Sep-25 19:23N 55°15' E 013°27'1514.8
2017-Sep-25 18:21N 55°14' E 013°54'714.9
2017-Sep-25 17:54N 55°14' E 014°05'614.9
2017-Sep-25 17:28N 55°13' E 014°17'714.6
2017-Sep-25 17:00N 55°18' E 014°24'814.5
2017-Sep-25 16:28N 55°24' E 014°33'814.4
2017-Sep-25 15:54N 55°29' E 014°45'614.4
2017-Sep-25 15:30N 55°32' E 014°54'1114.5
2017-Sep-25 14:45N 55°37' E 015°10'414.7
2017-Sep-25 14:30N 55°39' E 015°16'714.7
2017-Sep-25 14:00N 55°43' E 015°27'714.8
2017-Sep-25 13:30N 55°46' E 015°39'714.8
2017-Sep-25 13:00N 55°50' E 015°50'815.0
2017-Sep-25 12:30N 55°54' E 016°02'815.1
2017-Sep-25 12:00N 55°57' E 016°14'815.1
2017-Sep-25 11:30N 56°01' E 016°25'815.1
2017-Sep-25 11:00N 56°05' E 016°37'714.9
2017-Sep-25 10:30N 56°09' E 016°48'714.7
2017-Sep-25 10:00N 56°14' E 016°58'714.8
2017-Sep-25 09:30N 56°18' E 017°09'714.8
2017-Sep-25 09:00N 56°23' E 017°19'714.7
2017-Sep-25 08:30N 56°27' E 017°30'1014.7
2017-Sep-25 07:49N 56°33' E 017°45'614.6
2017-Sep-25 07:23N 56°37' E 017°54'614.8
2017-Sep-25 07:00N 56°40' E 018°02'714.8
2017-Sep-25 06:30N 56°45' E 018°13'714.8
2017-Sep-25 06:00N 56°49' E 018°24'714.6
2017-Sep-25 05:30N 56°55' E 018°32'16914.6
2017-Sep-24 17:58N 59°11' E 021°41'714.6
2017-Sep-24 17:30N 59°15' E 021°52'714.8
2017-Sep-24 17:00N 59°19' E 022°03'714.6
2017-Sep-24 16:30N 59°23' E 022°15'714.8
2017-Sep-24 16:00N 59°28' E 022°27'714.9
2017-Sep-24 15:30N 59°31' E 022°40'715.1
2017-Sep-24 15:00N 59°33' E 022°54'715.0
2017-Sep-24 14:30N 59°36' E 023°08'815.1
2017-Sep-24 14:00N 59°38' E 023°22'714.9
2017-Sep-24 13:30N 59°40' E 023°36'814.9
2017-Sep-24 13:00N 59°42' E 023°51'714.9
2017-Sep-24 12:30N 59°44' E 024°05'815.2
2017-Sep-24 12:00N 59°46' E 024°19'714.9
2017-Sep-24 11:30N 59°48' E 024°33'714.8
2017-Sep-24 11:01N 59°50' E 024°48'4314.7
2017-Sep-24 08:04N 59°59' E 026°12'114.4
2017-Sep-24 08:01N 59°59' E 026°14'714.7
2017-Sep-24 07:30N 60°01' E 026°28'714.5
2017-Sep-24 07:01N 60°01' E 026°42'714.6
2017-Sep-24 06:30N 59°60' E 026°57'713.6
2017-Sep-24 06:00N 60°01' E 027°10'713.9
2017-Sep-24 05:30N 60°05' E 027°22'510.0
2017-Sep-24 05:00N 60°08' E 027°31'713.1
2017-Sep-24 04:30N 60°11' E 027°42'612.3
2017-Sep-24 04:01N 60°11' E 027°54'612.1
2017-Sep-24 03:30N 60°09' E 028°06'612.8
2017-Sep-24 03:01N 60°02' E 028°08'612.3
2017-Sep-24 02:31N 59°56' E 028°10'612.5
2017-Sep-24 02:00N 59°50' E 028°12'612.9
2017-Sep-24 01:31N 59°44' E 028°16'3 6.2
2017-Sep-24 01:01N 59°43' E 028°22'3 5.1
2017-Sep-24 00:31N 59°41' E 028°25'0 0.3
2017-Sep-24 00:00N 59°41' E 028°25'0 0.0
2017-Sep-23 23:30N 59°41' E 028°25'0 0.0
2017-Sep-23 23:00N 59°41' E 028°25'0 0.0
2017-Sep-23 22:30N 59°41' E 028°25'0 0.0
2017-Sep-23 21:57N 59°41' E 028°25'0 0.0
2017-Sep-23 21:30N 59°41' E 028°25'0 0.0
2017-Sep-23 21:00N 59°41' E 028°25'0 0.0
2017-Sep-23 20:24N 59°41' E 028°25'0 0.0
2017-Sep-23 20:00N 59°41' E 028°25'  

Dump ship's entire track history